sensor_id;sensor_type;location;lat;lon;timestamp;P1;durP1;ratioP1;P2;durP2;ratioP2
59930;SDS011;45790;51.538;6.736;2024-03-06T00:00:53;17.92;;;12.80;;
59930;SDS011;45790;51.538;6.736;2024-03-06T00:03:18;17.98;;;12.27;;
59930;SDS011;45790;51.538;6.736;2024-03-06T00:05:43;17.30;;;12.20;;
59930;SDS011;45790;51.538;6.736;2024-03-06T00:08:08;18.02;;;12.88;;
59930;SDS011;45790;51.538;6.736;2024-03-06T00:10:34;17.45;;;12.90;;
59930;SDS011;45790;51.538;6.736;2024-03-06T00:12:59;18.52;;;13.25;;
59930;SDS011;45790;51.538;6.736;2024-03-06T00:15:24;19.63;;;13.00;;
59930;SDS011;45790;51.538;6.736;2024-03-06T00:17:50;19.90;;;12.68;;
59930;SDS011;45790;51.538;6.736;2024-03-06T00:20:16;18.73;;;13.52;;
59930;SDS011;45790;51.538;6.736;2024-03-06T00:22:41;19.45;;;13.00;;
59930;SDS011;45790;51.538;6.736;2024-03-06T00:25:06;18.85;;;13.23;;
59930;SDS011;45790;51.538;6.736;2024-03-06T00:27:33;18.20;;;13.02;;
59930;SDS011;45790;51.538;6.736;2024-03-06T00:29:58;17.10;;;12.50;;
59930;SDS011;45790;51.538;6.736;2024-03-06T00:32:23;19.70;;;13.17;;
59930;SDS011;45790;51.538;6.736;2024-03-06T00:34:49;17.17;;;12.80;;
59930;SDS011;45790;51.538;6.736;2024-03-06T00:37:14;20.38;;;13.45;;
59930;SDS011;45790;51.538;6.736;2024-03-06T00:39:39;19.33;;;12.90;;
59930;SDS011;45790;51.538;6.736;2024-03-06T00:42:04;18.93;;;12.90;;
59930;SDS011;45790;51.538;6.736;2024-03-06T00:44:30;18.73;;;13.38;;
59930;SDS011;45790;51.538;6.736;2024-03-06T00:46:55;19.85;;;14.20;;
59930;SDS011;45790;51.538;6.736;2024-03-06T00:49:20;19.52;;;13.63;;
59930;SDS011;45790;51.538;6.736;2024-03-06T00:51:45;18.55;;;12.25;;
59930;SDS011;45790;51.538;6.736;2024-03-06T00:54:11;18.63;;;12.65;;
59930;SDS011;45790;51.538;6.736;2024-03-06T00:56:39;16.10;;;12.07;;
59930;SDS011;45790;51.538;6.736;2024-03-06T00:59:04;19.35;;;13.07;;
59930;SDS011;45790;51.538;6.736;2024-03-06T01:01:29;17.00;;;12.25;;
59930;SDS011;45790;51.538;6.736;2024-03-06T01:03:55;16.93;;;11.83;;
59930;SDS011;45790;51.538;6.736;2024-03-06T01:06:20;17.40;;;11.82;;
59930;SDS011;45790;51.538;6.736;2024-03-06T01:08:45;17.23;;;12.48;;
59930;SDS011;45790;51.538;6.736;2024-03-06T01:11:11;15.55;;;11.45;;
59930;SDS011;45790;51.538;6.736;2024-03-06T01:13:39;17.75;;;12.32;;
59930;SDS011;45790;51.538;6.736;2024-03-06T01:16:04;19.02;;;12.82;;
59930;SDS011;45790;51.538;6.736;2024-03-06T01:18:30;17.85;;;11.93;;
59930;SDS011;45790;51.538;6.736;2024-03-06T01:20:55;16.93;;;12.83;;
59930;SDS011;45790;51.538;6.736;2024-03-06T01:23:21;18.85;;;13.13;;
59930;SDS011;45790;51.538;6.736;2024-03-06T01:25:46;19.03;;;12.77;;
59930;SDS011;45790;51.538;6.736;2024-03-06T01:28:11;18.30;;;13.20;;
59930;SDS011;45790;51.538;6.736;2024-03-06T01:30:36;20.87;;;13.53;;
59930;SDS011;45790;51.538;6.736;2024-03-06T01:33:01;20.57;;;14.73;;
59930;SDS011;45790;51.538;6.736;2024-03-06T01:35:26;20.35;;;13.07;;
59930;SDS011;45790;51.538;6.736;2024-03-06T01:37:52;16.57;;;12.17;;
59930;SDS011;45790;51.538;6.736;2024-03-06T01:40:17;18.67;;;12.70;;
59930;SDS011;45790;51.538;6.736;2024-03-06T01:42:42;16.60;;;12.07;;
59930;SDS011;45790;51.538;6.736;2024-03-06T01:45:07;17.07;;;12.53;;
59930;SDS011;45790;51.538;6.736;2024-03-06T01:47:33;18.50;;;12.38;;
59930;SDS011;45790;51.538;6.736;2024-03-06T01:49:58;17.30;;;12.75;;
59930;SDS011;45790;51.538;6.736;2024-03-06T01:52:24;17.98;;;12.90;;
59930;SDS011;45790;51.538;6.736;2024-03-06T01:54:49;16.98;;;12.52;;
59930;SDS011;45790;51.538;6.736;2024-03-06T01:57:15;21.48;;;11.90;;
59930;SDS011;45790;51.538;6.736;2024-03-06T01:59:40;19.70;;;13.38;;
59930;SDS011;45790;51.538;6.736;2024-03-06T02:02:06;19.08;;;13.05;;
59930;SDS011;45790;51.538;6.736;2024-03-06T02:04:33;17.80;;;12.60;;
59930;SDS011;45790;51.538;6.736;2024-03-06T02:06:58;18.98;;;13.05;;
59930;SDS011;45790;51.538;6.736;2024-03-06T02:09:24;17.85;;;12.85;;
59930;SDS011;45790;51.538;6.736;2024-03-06T02:11:49;20.83;;;12.70;;
59930;SDS011;45790;51.538;6.736;2024-03-06T02:14:15;20.58;;;13.43;;
59930;SDS011;45790;51.538;6.736;2024-03-06T02:16:40;17.80;;;12.32;;
59930;SDS011;45790;51.538;6.736;2024-03-06T02:19:05;16.83;;;11.88;;
59930;SDS011;45790;51.538;6.736;2024-03-06T02:21:30;16.93;;;12.30;;
59930;SDS011;45790;51.538;6.736;2024-03-06T02:23:56;16.10;;;12.07;;
59930;SDS011;45790;51.538;6.736;2024-03-06T02:26:21;18.70;;;12.80;;
59930;SDS011;45790;51.538;6.736;2024-03-06T02:28:50;18.65;;;12.60;;
59930;SDS011;45790;51.538;6.736;2024-03-06T02:31:16;18.27;;;12.20;;
59930;SDS011;45790;51.538;6.736;2024-03-06T02:33:42;17.27;;;11.63;;
59930;SDS011;45790;51.538;6.736;2024-03-06T02:36:07;17.25;;;11.85;;
59930;SDS011;45790;51.538;6.736;2024-03-06T02:38:32;16.25;;;12.18;;
59930;SDS011;45790;51.538;6.736;2024-03-06T02:40:58;18.42;;;12.70;;
59930;SDS011;45790;51.538;6.736;2024-03-06T02:43:23;16.60;;;12.25;;
59930;SDS011;45790;51.538;6.736;2024-03-06T02:45:48;21.50;;;11.93;;
59930;SDS011;45790;51.538;6.736;2024-03-06T02:48:13;17.42;;;12.40;;
59930;SDS011;45790;51.538;6.736;2024-03-06T02:50:39;19.27;;;12.73;;
59930;SDS011;45790;51.538;6.736;2024-03-06T02:53:04;17.87;;;12.70;;
59930;SDS011;45790;51.538;6.736;2024-03-06T02:55:29;21.40;;;14.18;;
59930;SDS011;45790;51.538;6.736;2024-03-06T02:57:55;18.55;;;13.55;;
59930;SDS011;45790;51.538;6.736;2024-03-06T03:00:20;20.13;;;13.23;;
59930;SDS011;45790;51.538;6.736;2024-03-06T03:02:45;19.45;;;13.32;;
59930;SDS011;45790;51.538;6.736;2024-03-06T03:05:10;17.85;;;12.93;;
59930;SDS011;45790;51.538;6.736;2024-03-06T03:07:36;18.65;;;13.10;;
59930;SDS011;45790;51.538;6.736;2024-03-06T03:10:01;18.77;;;13.67;;
59930;SDS011;45790;51.538;6.736;2024-03-06T03:12:26;19.40;;;14.33;;
59930;SDS011;45790;51.538;6.736;2024-03-06T03:14:51;18.73;;;13.00;;
59930;SDS011;45790;51.538;6.736;2024-03-06T03:17:18;18.10;;;12.60;;
59930;SDS011;45790;51.538;6.736;2024-03-06T03:19:43;18.92;;;12.82;;
59930;SDS011;45790;51.538;6.736;2024-03-06T03:22:08;18.37;;;12.90;;
59930;SDS011;45790;51.538;6.736;2024-03-06T03:24:34;19.90;;;13.30;;
59930;SDS011;45790;51.538;6.736;2024-03-06T03:26:59;19.15;;;13.10;;
59930;SDS011;45790;51.538;6.736;2024-03-06T03:29:26;23.63;;;15.00;;
59930;SDS011;45790;51.538;6.736;2024-03-06T03:31:51;27.20;;;16.13;;
59930;SDS011;45790;51.538;6.736;2024-03-06T03:34:16;22.60;;;14.95;;
59930;SDS011;45790;51.538;6.736;2024-03-06T03:36:42;20.50;;;13.90;;
59930;SDS011;45790;51.538;6.736;2024-03-06T03:39:07;21.58;;;15.50;;
59930;SDS011;45790;51.538;6.736;2024-03-06T03:41:42;24.40;;;15.20;;
59930;SDS011;45790;51.538;6.736;2024-03-06T03:44:07;26.45;;;15.25;;
59930;SDS011;45790;51.538;6.736;2024-03-06T03:46:32;23.87;;;14.77;;
59930;SDS011;45790;51.538;6.736;2024-03-06T03:48:58;22.15;;;15.30;;
59930;SDS011;45790;51.538;6.736;2024-03-06T03:51:23;24.33;;;16.00;;
59930;SDS011;45790;51.538;6.736;2024-03-06T03:53:48;23.20;;;14.82;;
59930;SDS011;45790;51.538;6.736;2024-03-06T03:56:15;22.80;;;15.50;;
59930;SDS011;45790;51.538;6.736;2024-03-06T03:58:41;24.38;;;15.18;;
59930;SDS011;45790;51.538;6.736;2024-03-06T04:01:06;25.83;;;15.00;;
59930;SDS011;45790;51.538;6.736;2024-03-06T04:03:31;24.37;;;15.63;;
59930;SDS011;45790;51.538;6.736;2024-03-06T04:05:56;22.10;;;14.57;;
59930;SDS011;45790;51.538;6.736;2024-03-06T04:08:22;21.70;;;13.93;;
59930;SDS011;45790;51.538;6.736;2024-03-06T04:10:47;21.23;;;14.67;;
59930;SDS011;45790;51.538;6.736;2024-03-06T04:13:15;22.35;;;14.82;;
59930;SDS011;45790;51.538;6.736;2024-03-06T04:15:41;20.75;;;13.55;;
59930;SDS011;45790;51.538;6.736;2024-03-06T04:18:06;24.55;;;14.75;;
59930;SDS011;45790;51.538;6.736;2024-03-06T04:20:31;23.38;;;14.40;;
59930;SDS011;45790;51.538;6.736;2024-03-06T04:22:56;20.30;;;14.30;;
59930;SDS011;45790;51.538;6.736;2024-03-06T04:25:22;22.23;;;14.75;;
59930;SDS011;45790;51.538;6.736;2024-03-06T04:27:48;21.40;;;14.70;;
59930;SDS011;45790;51.538;6.736;2024-03-06T04:30:13;21.97;;;14.67;;
59930;SDS011;45790;51.538;6.736;2024-03-06T04:32:39;25.17;;;15.85;;
59930;SDS011;45790;51.538;6.736;2024-03-06T04:35:04;24.00;;;15.20;;
59930;SDS011;45790;51.538;6.736;2024-03-06T04:37:29;26.27;;;15.75;;
59930;SDS011;45790;51.538;6.736;2024-03-06T04:39:55;26.50;;;16.40;;
59930;SDS011;45790;51.538;6.736;2024-03-06T04:42:20;25.05;;;16.30;;
59930;SDS011;45790;51.538;6.736;2024-03-06T04:44:46;29.97;;;17.17;;
59930;SDS011;45790;51.538;6.736;2024-03-06T04:47:11;27.30;;;17.08;;
59930;SDS011;45790;51.538;6.736;2024-03-06T04:49:36;26.42;;;16.90;;
59930;SDS011;45790;51.538;6.736;2024-03-06T04:52:01;28.98;;;18.23;;
59930;SDS011;45790;51.538;6.736;2024-03-06T04:54:28;29.10;;;17.95;;
59930;SDS011;45790;51.538;6.736;2024-03-06T04:56:53;31.02;;;18.98;;
59930;SDS011;45790;51.538;6.736;2024-03-06T04:59:18;39.35;;;24.13;;
59930;SDS011;45790;51.538;6.736;2024-03-06T05:01:43;35.63;;;21.70;;
59930;SDS011;45790;51.538;6.736;2024-03-06T05:04:09;35.38;;;21.33;;
59930;SDS011;45790;51.538;6.736;2024-03-06T05:06:34;35.67;;;22.35;;
59930;SDS011;45790;51.538;6.736;2024-03-06T05:09:00;33.38;;;22.13;;
59930;SDS011;45790;51.538;6.736;2024-03-06T05:11:25;34.40;;;20.63;;
59930;SDS011;45790;51.538;6.736;2024-03-06T05:13:50;32.13;;;19.37;;
59930;SDS011;45790;51.538;6.736;2024-03-06T05:16:16;30.27;;;18.67;;
59930;SDS011;45790;51.538;6.736;2024-03-06T05:18:41;29.45;;;18.27;;
59930;SDS011;45790;51.538;6.736;2024-03-06T05:21:06;28.03;;;18.03;;
59930;SDS011;45790;51.538;6.736;2024-03-06T05:23:31;31.20;;;18.60;;
59930;SDS011;45790;51.538;6.736;2024-03-06T05:25:56;31.27;;;19.20;;
59930;SDS011;45790;51.538;6.736;2024-03-06T05:28:22;28.75;;;17.67;;
59930;SDS011;45790;51.538;6.736;2024-03-06T05:30:47;27.60;;;17.50;;
59930;SDS011;45790;51.538;6.736;2024-03-06T05:33:12;27.08;;;17.42;;
59930;SDS011;45790;51.538;6.736;2024-03-06T05:35:38;26.98;;;16.85;;
59930;SDS011;45790;51.538;6.736;2024-03-06T05:38:03;24.40;;;15.30;;
59930;SDS011;45790;51.538;6.736;2024-03-06T05:40:28;24.90;;;15.45;;
59930;SDS011;45790;51.538;6.736;2024-03-06T05:42:53;26.63;;;14.80;;
59930;SDS011;45790;51.538;6.736;2024-03-06T05:45:19;25.83;;;14.90;;
59930;SDS011;45790;51.538;6.736;2024-03-06T05:47:44;21.23;;;14.05;;
59930;SDS011;45790;51.538;6.736;2024-03-06T05:50:09;24.30;;;14.20;;
59930;SDS011;45790;51.538;6.736;2024-03-06T05:52:35;23.17;;;14.63;;
59930;SDS011;45790;51.538;6.736;2024-03-06T05:55:01;23.73;;;15.43;;
59930;SDS011;45790;51.538;6.736;2024-03-06T05:57:26;23.25;;;14.77;;
59930;SDS011;45790;51.538;6.736;2024-03-06T05:59:51;22.95;;;13.73;;
59930;SDS011;45790;51.538;6.736;2024-03-06T06:02:16;20.17;;;13.77;;
59930;SDS011;45790;51.538;6.736;2024-03-06T06:04:43;23.25;;;13.48;;
59930;SDS011;45790;51.538;6.736;2024-03-06T06:07:09;21.90;;;14.23;;
59930;SDS011;45790;51.538;6.736;2024-03-06T06:09:34;25.20;;;13.40;;
59930;SDS011;45790;51.538;6.736;2024-03-06T06:11:59;22.57;;;14.33;;
59930;SDS011;45790;51.538;6.736;2024-03-06T06:14:25;26.35;;;13.93;;
59930;SDS011;45790;51.538;6.736;2024-03-06T06:16:52;22.52;;;14.40;;
59930;SDS011;45790;51.538;6.736;2024-03-06T06:19:17;21.30;;;13.70;;
59930;SDS011;45790;51.538;6.736;2024-03-06T06:21:42;25.42;;;14.52;;
59930;SDS011;45790;51.538;6.736;2024-03-06T06:24:08;23.13;;;14.07;;
59930;SDS011;45790;51.538;6.736;2024-03-06T06:26:33;22.83;;;14.32;;
59930;SDS011;45790;51.538;6.736;2024-03-06T06:28:58;23.40;;;13.77;;
59930;SDS011;45790;51.538;6.736;2024-03-06T06:31:24;23.52;;;14.30;;
59930;SDS011;45790;51.538;6.736;2024-03-06T06:33:50;22.63;;;13.98;;
59930;SDS011;45790;51.538;6.736;2024-03-06T06:36:16;24.85;;;14.40;;
59930;SDS011;45790;51.538;6.736;2024-03-06T06:38:42;22.25;;;13.48;;
59930;SDS011;45790;51.538;6.736;2024-03-06T06:41:08;23.65;;;15.13;;
59930;SDS011;45790;51.538;6.736;2024-03-06T06:43:34;25.10;;;15.15;;
59930;SDS011;45790;51.538;6.736;2024-03-06T06:45:59;25.38;;;15.00;;
59930;SDS011;45790;51.538;6.736;2024-03-06T06:48:24;23.42;;;14.70;;
59930;SDS011;45790;51.538;6.736;2024-03-06T06:50:49;24.02;;;14.35;;
59930;SDS011;45790;51.538;6.736;2024-03-06T06:53:14;22.08;;;15.20;;
59930;SDS011;45790;51.538;6.736;2024-03-06T06:55:40;23.70;;;15.02;;
59930;SDS011;45790;51.538;6.736;2024-03-06T06:58:05;24.67;;;15.82;;
59930;SDS011;45790;51.538;6.736;2024-03-06T07:00:31;22.58;;;14.43;;
59930;SDS011;45790;51.538;6.736;2024-03-06T07:02:57;23.08;;;15.02;;
59930;SDS011;45790;51.538;6.736;2024-03-06T07:05:25;23.08;;;14.98;;
59930;SDS011;45790;51.538;6.736;2024-03-06T07:07:51;27.05;;;15.68;;
59930;SDS011;45790;51.538;6.736;2024-03-06T07:10:16;24.27;;;15.77;;
59930;SDS011;45790;51.538;6.736;2024-03-06T07:12:41;25.50;;;15.20;;
59930;SDS011;45790;51.538;6.736;2024-03-06T07:15:07;22.33;;;15.57;;
59930;SDS011;45790;51.538;6.736;2024-03-06T07:17:32;24.30;;;15.27;;
59930;SDS011;45790;51.538;6.736;2024-03-06T07:19:57;26.35;;;17.30;;
59930;SDS011;45790;51.538;6.736;2024-03-06T07:22:23;31.13;;;18.95;;
59930;SDS011;45790;51.538;6.736;2024-03-06T07:24:48;25.13;;;16.48;;
59930;SDS011;45790;51.538;6.736;2024-03-06T07:27:13;29.00;;;19.08;;
59930;SDS011;45790;51.538;6.736;2024-03-06T07:29:38;30.13;;;18.35;;
59930;SDS011;45790;51.538;6.736;2024-03-06T07:32:03;29.43;;;18.93;;
59930;SDS011;45790;51.538;6.736;2024-03-06T07:34:32;30.65;;;17.92;;
59930;SDS011;45790;51.538;6.736;2024-03-06T07:36:57;29.23;;;18.15;;
59930;SDS011;45790;51.538;6.736;2024-03-06T07:39:26;29.35;;;18.52;;
59930;SDS011;45790;51.538;6.736;2024-03-06T07:41:51;29.90;;;18.48;;
59930;SDS011;45790;51.538;6.736;2024-03-06T07:44:17;29.88;;;19.05;;
59930;SDS011;45790;51.538;6.736;2024-03-06T07:46:42;36.03;;;20.63;;
59930;SDS011;45790;51.538;6.736;2024-03-06T07:49:07;32.37;;;20.40;;
59930;SDS011;45790;51.538;6.736;2024-03-06T07:51:32;35.80;;;20.73;;
59930;SDS011;45790;51.538;6.736;2024-03-06T07:53:58;32.63;;;19.20;;
59930;SDS011;45790;51.538;6.736;2024-03-06T07:56:24;37.83;;;20.85;;
59930;SDS011;45790;51.538;6.736;2024-03-06T07:58:49;35.00;;;21.10;;
59930;SDS011;45790;51.538;6.736;2024-03-06T08:01:15;37.35;;;21.73;;
59930;SDS011;45790;51.538;6.736;2024-03-06T08:03:40;39.85;;;22.10;;
59930;SDS011;45790;51.538;6.736;2024-03-06T08:06:05;39.03;;;21.45;;
59930;SDS011;45790;51.538;6.736;2024-03-06T08:08:31;39.08;;;22.58;;
59930;SDS011;45790;51.538;6.736;2024-03-06T08:10:56;40.90;;;23.05;;
59930;SDS011;45790;51.538;6.736;2024-03-06T08:13:21;40.33;;;24.08;;
59930;SDS011;45790;51.538;6.736;2024-03-06T08:15:46;39.00;;;23.23;;
59930;SDS011;45790;51.538;6.736;2024-03-06T08:18:12;48.13;;;24.00;;
59930;SDS011;45790;51.538;6.736;2024-03-06T08:20:38;45.60;;;24.33;;
59930;SDS011;45790;51.538;6.736;2024-03-06T08:23:03;44.25;;;24.77;;
59930;SDS011;45790;51.538;6.736;2024-03-06T08:25:28;40.08;;;21.83;;
59930;SDS011;45790;51.538;6.736;2024-03-06T08:27:54;44.08;;;24.55;;
59930;SDS011;45790;51.538;6.736;2024-03-06T08:30:19;40.10;;;22.77;;
59930;SDS011;45790;51.538;6.736;2024-03-06T08:32:45;41.28;;;24.75;;
59930;SDS011;45790;51.538;6.736;2024-03-06T08:35:11;41.17;;;24.17;;
59930;SDS011;45790;51.538;6.736;2024-03-06T08:37:40;38.95;;;23.33;;
59930;SDS011;45790;51.538;6.736;2024-03-06T08:40:05;40.25;;;23.83;;
59930;SDS011;45790;51.538;6.736;2024-03-06T08:42:32;40.53;;;24.65;;
59930;SDS011;45790;51.538;6.736;2024-03-06T08:44:58;44.05;;;24.85;;
59930;SDS011;45790;51.538;6.736;2024-03-06T08:47:23;40.83;;;23.90;;
59930;SDS011;45790;51.538;6.736;2024-03-06T08:49:48;40.63;;;24.80;;
59930;SDS011;45790;51.538;6.736;2024-03-06T08:52:13;38.33;;;23.87;;
59930;SDS011;45790;51.538;6.736;2024-03-06T08:54:39;40.92;;;23.67;;
59930;SDS011;45790;51.538;6.736;2024-03-06T08:57:06;48.88;;;26.35;;
59930;SDS011;45790;51.538;6.736;2024-03-06T08:59:31;55.78;;;28.77;;
59930;SDS011;45790;51.538;6.736;2024-03-06T09:01:56;53.13;;;27.67;;
59930;SDS011;45790;51.538;6.736;2024-03-06T09:04:22;50.03;;;27.23;;
59930;SDS011;45790;51.538;6.736;2024-03-06T09:06:47;46.25;;;26.85;;
59930;SDS011;45790;51.538;6.736;2024-03-06T09:09:14;45.35;;;26.65;;
59930;SDS011;45790;51.538;6.736;2024-03-06T09:11:40;43.90;;;25.27;;
59930;SDS011;45790;51.538;6.736;2024-03-06T09:14:05;45.17;;;26.92;;
59930;SDS011;45790;51.538;6.736;2024-03-06T09:16:30;41.70;;;26.07;;
59930;SDS011;45790;51.538;6.736;2024-03-06T09:18:55;42.73;;;25.30;;
59930;SDS011;45790;51.538;6.736;2024-03-06T09:21:21;39.58;;;24.38;;
59930;SDS011;45790;51.538;6.736;2024-03-06T09:23:47;45.92;;;25.58;;
59930;SDS011;45790;51.538;6.736;2024-03-06T09:26:16;37.72;;;24.88;;
59930;SDS011;45790;51.538;6.736;2024-03-06T09:28:41;39.10;;;23.77;;
59930;SDS011;45790;51.538;6.736;2024-03-06T09:31:06;39.03;;;25.77;;
59930;SDS011;45790;51.538;6.736;2024-03-06T09:33:31;40.65;;;25.73;;
59930;SDS011;45790;51.538;6.736;2024-03-06T09:35:57;42.08;;;25.13;;
59930;SDS011;45790;51.538;6.736;2024-03-06T09:38:23;40.70;;;27.00;;
59930;SDS011;45790;51.538;6.736;2024-03-06T09:40:48;36.95;;;23.42;;
59930;SDS011;45790;51.538;6.736;2024-03-06T09:43:14;46.50;;;28.00;;
59930;SDS011;45790;51.538;6.736;2024-03-06T09:45:39;47.80;;;29.47;;
59930;SDS011;45790;51.538;6.736;2024-03-06T09:48:05;52.05;;;32.60;;
59930;SDS011;45790;51.538;6.736;2024-03-06T09:50:31;61.25;;;35.30;;
59930;SDS011;45790;51.538;6.736;2024-03-06T09:53:01;72.15;;;37.53;;
59930;SDS011;45790;51.538;6.736;2024-03-06T09:55:29;54.92;;;36.20;;
59930;SDS011;45790;51.538;6.736;2024-03-06T09:57:55;73.45;;;42.22;;
59930;SDS011;45790;51.538;6.736;2024-03-06T10:00:20;66.97;;;43.03;;
59930;SDS011;45790;51.538;6.736;2024-03-06T10:02:59;73.50;;;43.60;;
59930;SDS011;45790;51.538;6.736;2024-03-06T10:05:27;57.10;;;35.25;;
59930;SDS011;45790;51.538;6.736;2024-03-06T10:07:53;64.03;;;39.55;;
59930;SDS011;45790;51.538;6.736;2024-03-06T10:10:19;68.57;;;43.80;;
59930;SDS011;45790;51.538;6.736;2024-03-06T10:12:45;58.40;;;39.03;;
59930;SDS011;45790;51.538;6.736;2024-03-06T10:15:10;69.10;;;42.17;;
59930;SDS011;45790;51.538;6.736;2024-03-06T10:17:37;56.78;;;39.10;;
59930;SDS011;45790;51.538;6.736;2024-03-06T10:20:15;59.72;;;37.13;;
59930;SDS011;45790;51.538;6.736;2024-03-06T10:22:41;54.33;;;35.78;;
59930;SDS011;45790;51.538;6.736;2024-03-06T10:25:06;56.58;;;36.65;;
59930;SDS011;45790;51.538;6.736;2024-03-06T10:27:34;60.05;;;34.83;;
59930;SDS011;45790;51.538;6.736;2024-03-06T10:30:00;58.10;;;37.97;;
59930;SDS011;45790;51.538;6.736;2024-03-06T10:32:25;59.58;;;38.20;;
59930;SDS011;45790;51.538;6.736;2024-03-06T10:34:51;60.00;;;36.33;;
59930;SDS011;45790;51.538;6.736;2024-03-06T10:37:17;58.60;;;36.55;;
59930;SDS011;45790;51.538;6.736;2024-03-06T10:39:42;57.60;;;39.05;;
59930;SDS011;45790;51.538;6.736;2024-03-06T10:42:09;57.35;;;37.33;;
59930;SDS011;45790;51.538;6.736;2024-03-06T10:44:37;57.60;;;37.92;;
59930;SDS011;45790;51.538;6.736;2024-03-06T10:47:09;56.92;;;38.65;;
59930;SDS011;45790;51.538;6.736;2024-03-06T10:49:34;56.85;;;36.58;;
59930;SDS011;45790;51.538;6.736;2024-03-06T10:52:01;56.25;;;37.55;;
59930;SDS011;45790;51.538;6.736;2024-03-06T10:54:26;50.80;;;34.47;;
59930;SDS011;45790;51.538;6.736;2024-03-06T10:56:51;53.33;;;36.15;;
59930;SDS011;45790;51.538;6.736;2024-03-06T10:59:18;60.25;;;39.72;;
59930;SDS011;45790;51.538;6.736;2024-03-06T11:01:44;53.45;;;35.65;;
59930;SDS011;45790;51.538;6.736;2024-03-06T11:04:11;55.90;;;36.42;;
59930;SDS011;45790;51.538;6.736;2024-03-06T11:06:37;58.03;;;36.97;;
59930;SDS011;45790;51.538;6.736;2024-03-06T11:09:03;49.20;;;34.78;;
59930;SDS011;45790;51.538;6.736;2024-03-06T11:11:28;57.33;;;37.08;;
59930;SDS011;45790;51.538;6.736;2024-03-06T11:14:01;51.75;;;35.38;;
59930;SDS011;45790;51.538;6.736;2024-03-06T11:16:31;57.45;;;35.92;;
59930;SDS011;45790;51.538;6.736;2024-03-06T11:19:08;47.97;;;33.17;;
59930;SDS011;45790;51.538;6.736;2024-03-06T11:21:33;48.92;;;33.53;;
59930;SDS011;45790;51.538;6.736;2024-03-06T11:26:36;49.25;;;32.50;;
59930;SDS011;45790;51.538;6.736;2024-03-06T11:29:01;46.70;;;30.87;;
59930;SDS011;45790;51.538;6.736;2024-03-06T11:31:26;49.55;;;33.70;;
59930;SDS011;45790;51.538;6.736;2024-03-06T11:33:53;50.97;;;32.28;;
59930;SDS011;45790;51.538;6.736;2024-03-06T11:36:28;44.53;;;31.17;;
59930;SDS011;45790;51.538;6.736;2024-03-06T11:41:22;41.88;;;29.38;;
59930;SDS011;45790;51.538;6.736;2024-03-06T11:43:49;44.60;;;29.35;;
59930;SDS011;45790;51.538;6.736;2024-03-06T11:46:21;44.10;;;29.33;;
59930;SDS011;45790;51.538;6.736;2024-03-06T11:48:53;45.75;;;30.98;;
59930;SDS011;45790;51.538;6.736;2024-03-06T11:51:18;44.55;;;30.10;;
59930;SDS011;45790;51.538;6.736;2024-03-06T11:53:43;44.10;;;30.77;;
59930;SDS011;45790;51.538;6.736;2024-03-06T11:56:09;43.70;;;30.55;;
59930;SDS011;45790;51.538;6.736;2024-03-06T11:58:34;44.63;;;32.47;;
59930;SDS011;45790;51.538;6.736;2024-03-06T12:01:00;48.15;;;31.65;;
59930;SDS011;45790;51.538;6.736;2024-03-06T12:03:26;46.95;;;31.33;;
59930;SDS011;45790;51.538;6.736;2024-03-06T12:05:52;46.95;;;31.52;;
59930;SDS011;45790;51.538;6.736;2024-03-06T12:08:17;44.20;;;29.05;;
59930;SDS011;45790;51.538;6.736;2024-03-06T12:10:43;34.55;;;22.85;;
59930;SDS011;45790;51.538;6.736;2024-03-06T12:13:10;34.35;;;22.05;;
59930;SDS011;45790;51.538;6.736;2024-03-06T12:15:35;30.93;;;23.07;;
59930;SDS011;45790;51.538;6.736;2024-03-06T12:18:00;32.00;;;22.70;;
59930;SDS011;45790;51.538;6.736;2024-03-06T12:20:26;35.57;;;22.97;;
59930;SDS011;45790;51.538;6.736;2024-03-06T12:22:51;33.03;;;23.25;;
59930;SDS011;45790;51.538;6.736;2024-03-06T12:25:20;30.77;;;22.60;;
59930;SDS011;45790;51.538;6.736;2024-03-06T12:27:46;32.40;;;22.85;;
59930;SDS011;45790;51.538;6.736;2024-03-06T12:30:11;33.67;;;23.20;;
59930;SDS011;45790;51.538;6.736;2024-03-06T12:32:38;35.03;;;22.35;;
59930;SDS011;45790;51.538;6.736;2024-03-06T12:35:03;30.58;;;22.08;;
59930;SDS011;45790;51.538;6.736;2024-03-06T12:37:32;31.15;;;22.20;;
59930;SDS011;45790;51.538;6.736;2024-03-06T12:39:57;32.70;;;22.70;;
59930;SDS011;45790;51.538;6.736;2024-03-06T12:42:22;36.45;;;23.17;;
59930;SDS011;45790;51.538;6.736;2024-03-06T12:44:49;31.10;;;21.55;;
59930;SDS011;45790;51.538;6.736;2024-03-06T12:47:14;32.75;;;21.95;;
59930;SDS011;45790;51.538;6.736;2024-03-06T12:49:40;32.35;;;21.08;;
59930;SDS011;45790;51.538;6.736;2024-03-06T12:52:05;29.40;;;20.50;;
59930;SDS011;45790;51.538;6.736;2024-03-06T12:54:30;29.92;;;20.98;;
59930;SDS011;45790;51.538;6.736;2024-03-06T12:56:55;29.65;;;19.98;;
59930;SDS011;45790;51.538;6.736;2024-03-06T12:59:22;27.27;;;20.35;;
59930;SDS011;45790;51.538;6.736;2024-03-06T13:01:47;28.85;;;19.73;;
59930;SDS011;45790;51.538;6.736;2024-03-06T13:04:12;29.23;;;20.73;;
59930;SDS011;45790;51.538;6.736;2024-03-06T13:06:38;32.10;;;21.58;;
59930;SDS011;45790;51.538;6.736;2024-03-06T13:09:05;36.63;;;24.50;;
59930;SDS011;45790;51.538;6.736;2024-03-06T13:11:31;39.40;;;25.52;;
59930;SDS011;45790;51.538;6.736;2024-03-06T13:13:56;31.90;;;22.70;;
59930;SDS011;45790;51.538;6.736;2024-03-06T13:16:22;35.92;;;23.98;;
59930;SDS011;45790;51.538;6.736;2024-03-06T13:18:47;34.58;;;24.75;;
59930;SDS011;45790;51.538;6.736;2024-03-06T13:21:12;35.93;;;23.90;;
59930;SDS011;45790;51.538;6.736;2024-03-06T13:23:37;32.33;;;21.47;;
59930;SDS011;45790;51.538;6.736;2024-03-06T13:26:03;31.00;;;20.27;;
59930;SDS011;45790;51.538;6.736;2024-03-06T13:28:28;29.00;;;19.73;;
59930;SDS011;45790;51.538;6.736;2024-03-06T13:30:53;33.63;;;22.45;;
59930;SDS011;45790;51.538;6.736;2024-03-06T13:33:19;35.05;;;23.48;;
59930;SDS011;45790;51.538;6.736;2024-03-06T13:35:44;27.52;;;18.92;;
59930;SDS011;45790;51.538;6.736;2024-03-06T13:38:09;22.45;;;15.85;;
59930;SDS011;45790;51.538;6.736;2024-03-06T13:40:34;25.03;;;15.17;;
59930;SDS011;45790;51.538;6.736;2024-03-06T13:43:00;22.30;;;15.05;;
59930;SDS011;45790;51.538;6.736;2024-03-06T13:45:25;24.27;;;15.63;;
59930;SDS011;45790;51.538;6.736;2024-03-06T13:47:51;27.00;;;18.58;;
59930;SDS011;45790;51.538;6.736;2024-03-06T13:50:18;26.67;;;17.47;;
59930;SDS011;45790;51.538;6.736;2024-03-06T13:52:43;23.00;;;14.73;;
59930;SDS011;45790;51.538;6.736;2024-03-06T13:55:09;22.17;;;14.57;;
59930;SDS011;45790;51.538;6.736;2024-03-06T13:57:35;20.75;;;14.40;;
59930;SDS011;45790;51.538;6.736;2024-03-06T14:00:01;18.20;;;12.95;;
59930;SDS011;45790;51.538;6.736;2024-03-06T14:02:26;20.25;;;13.07;;
59930;SDS011;45790;51.538;6.736;2024-03-06T14:04:52;17.73;;;11.55;;
59930;SDS011;45790;51.538;6.736;2024-03-06T14:07:17;18.05;;;12.45;;
59930;SDS011;45790;51.538;6.736;2024-03-06T14:09:42;16.13;;;11.43;;
59930;SDS011;45790;51.538;6.736;2024-03-06T14:12:07;19.73;;;12.70;;
59930;SDS011;45790;51.538;6.736;2024-03-06T14:14:33;18.15;;;12.57;;
59930;SDS011;45790;51.538;6.736;2024-03-06T14:16:58;18.95;;;13.23;;